Time;durP1;ratioP1;P1;durP2;ratioP2;P2;SDS_P1;SDS_P2;PMS_P1;PMS_P2;Temp;Humidity;BMP_temperature;BMP_pressure;BME280_temperature;BME280_humidity;BME280_pressure;Samples;Min_cycle;Max_cycle;Signal;HPM_P1;HPM_P2
2023/01/29 00:01:47;;;;;;;22.30;6.77;;;;;;;;;;6187126;28;20302;-79
2023/01/29 00:04:58;;;;;;;5.87;2.50;;;;;;;;;;6209688;28;20589;-79
2023/01/29 00:08:20;;;;;;;54.07;15.23;;;;;;;;;;6211416;28;20290;-79
2023/01/29 00:11:25;;;;;;;13.87;3.33;;;;;;;;;;6210500;28;20465;-79
2023/01/29 00:14:33;;;;;;;2.03;1.90;;;;;;;;;;6211163;28;20481;-79
2023/01/29 00:17:39;;;;;;;2.97;2.57;;;;;;;;;;6211589;28;20293;-78
2023/01/29 00:20:45;;;;;;;10.87;4.07;;;;;;;;;;6193420;28;20476;-79
2023/01/29 00:23:51;;;;;;;36.70;10.37;;;;;;;;;;6209757;28;20294;-78
2023/01/29 00:26:56;;;;;;;53.50;15.17;;;;;;;;;;6193952;28;20290;-79
2023/01/29 00:30:11;;;;;;;68.83;19.23;;;;;;;;;;6193824;28;20461;-78
2023/01/29 00:33:17;;;;;;;15.00;4.80;;;;;;;;;;6210585;28;20570;-79
2023/01/29 00:36:25;;;;;;;84.73;20.03;;;;;;;;;;6210040;28;20303;-79
2023/01/29 00:39:37;;;;;;;44.33;13.40;;;;;;;;;;6209384;28;20488;-79
2023/01/29 00:46:15;;;;;;;5.87;2.40;;;;;;;;;;6209283;28;20371;-80
2023/01/29 00:49:20;;;;;;;6.13;1.80;;;;;;;;;;6209725;28;20303;-79
2023/01/29 00:52:27;;;;;;;3.40;1.97;;;;;;;;;;6209746;28;20293;-78
2023/01/29 00:55:32;;;;;;;4.03;1.60;;;;;;;;;;6213077;28;20299;-78
2023/01/29 00:58:38;;;;;;;6.53;1.63;;;;;;;;;;6224563;28;20285;-78
2023/01/29 01:05:12;;;;;;;3.87;1.67;;;;;;;;;;6218091;28;20417;-78
2023/01/29 01:11:42;;;;;;;172.07;39.67;;;;;;;;;;6225529;28;20301;-77
2023/01/29 01:14:48;;;;;;;57.03;12.73;;;;;;;;;;6234446;28;20461;-78
2023/01/29 01:17:53;;;;;;;5.07;2.90;;;;;;;;;;6218185;28;20292;-79
2023/01/29 01:20:59;;;;;;;8.97;3.47;;;;;;;;;;6207978;28;20389;-79
2023/01/29 01:24:06;;;;;;;9.73;3.53;;;;;;;;;;6217119;28;20315;-79
2023/01/29 01:27:12;;;;;;;9.17;2.90;;;;;;;;;;6233757;28;20309;-78
2023/01/29 01:30:17;;;;;;;3.87;2.10;;;;;;;;;;6233738;28;20292;-79
2023/01/29 01:33:23;;;;;;;6.90;2.30;;;;;;;;;;6216933;28;20294;-79
2023/01/29 01:36:28;;;;;;;3.70;1.83;;;;;;;;;;6234220;28;20296;-80
2023/01/29 01:39:36;;;;;;;9.93;2.33;;;;;;;;;;6216989;28;20484;-80
2023/01/29 01:42:41;;;;;;;3.17;1.93;;;;;;;;;;6236721;28;20293;-79
2023/01/29 01:45:47;;;;;;;3.00;1.63;;;;;;;;;;6238340;28;20317;-79
2023/01/29 01:48:56;;;;;;;2.00;1.60;;;;;;;;;;6221835;28;20284;-79
2023/01/29 01:52:01;;;;;;;9.17;2.20;;;;;;;;;;6222005;28;20633;-79
2023/01/29 01:55:09;;;;;;;2.57;1.63;;;;;;;;;;6220899;28;20305;-79
2023/01/29 01:58:19;;;;;;;2.60;1.70;;;;;;;;;;6221334;28;20319;-80
2023/01/29 02:01:28;;;;;;;1.90;1.80;;;;;;;;;;6221905;28;20304;-78
2023/01/29 02:11:21;;;;;;;2.53;2.07;;;;;;;;;;6225433;28;20287;-77
2023/01/29 02:14:27;;;;;;;3.10;1.83;;;;;;;;;;6250493;28;20470;-79
2023/01/29 02:17:33;;;;;;;2.40;1.70;;;;;;;;;;6234915;28;20299;-80
2023/01/29 02:20:39;;;;;;;5.97;2.03;;;;;;;;;;6244996;28;20284;-78
2023/01/29 02:24:23;;;;;;;2.23;1.77;;;;;;;;;;6226385;28;20302;-78
2023/01/29 02:27:35;;;;;;;5.70;2.27;;;;;;;;;;6215970;28;20314;-79
2023/01/29 02:30:47;;;;;;;3.83;1.87;;;;;;;;;;6214174;28;20297;-77
2023/01/29 02:34:00;;;;;;;5.37;2.30;;;;;;;;;;6213844;28;20478;-78
2023/01/29 02:37:09;;;;;;;4.10;1.90;;;;;;;;;;6215780;28;20459;-78
2023/01/29 02:40:21;;;;;;;2.77;1.93;;;;;;;;;;6220654;28;20312;-79
2023/01/29 02:43:34;;;;;;;3.33;1.63;;;;;;;;;;6237737;28;20303;-79
2023/01/29 02:46:49;;;;;;;2.67;2.20;;;;;;;;;;6221539;28;20294;-79
2023/01/29 02:50:00;;;;;;;5.40;2.20;;;;;;;;;;6219406;28;20290;-79
2023/01/29 02:53:09;;;;;;;4.80;2.13;;;;;;;;;;6204100;28;20278;-79
2023/01/29 02:56:17;;;;;;;2.37;1.97;;;;;;;;;;6220725;28;20324;-79
2023/01/29 02:59:25;;;;;;;2.57;2.10;;;;;;;;;;6220284;28;20312;-79
2023/01/29 03:02:36;;;;;;;1.80;1.70;;;;;;;;;;6220627;28;20296;-79
2023/01/29 03:05:49;;;;;;;3.23;1.77;;;;;;;;;;6237695;28;20285;-78
2023/01/29 03:08:58;;;;;;;6.13;2.10;;;;;;;;;;6220220;28;20506;-79
2023/01/29 03:12:17;;;;;;;1.87;1.77;;;;;;;;;;6206926;28;20288;-78
2023/01/29 03:15:29;;;;;;;2.57;2.00;;;;;;;;;;6236062;28;20293;-79
2023/01/29 03:19:06;;;;;;;4.47;1.87;;;;;;;;;;6236361;28;20293;-78
2023/01/29 03:22:17;;;;;;;2.63;2.20;;;;;;;;;;6224007;28;20318;-79
2023/01/29 03:32:13;;;;;;;2.10;1.97;;;;;;;;;;6222285;28;20293;-79
2023/01/29 03:35:35;;;;;;;2.40;2.23;;;;;;;;;;6219553;28;20280;-79
2023/01/29 03:38:42;;;;;;;5.40;2.10;;;;;;;;;;6219479;28;20295;-78
2023/01/29 03:41:52;;;;;;;2.47;1.97;;;;;;;;;;6220045;28;20441;-78
2023/01/29 03:45:01;;;;;;;4.20;2.40;;;;;;;;;;6219378;28;20299;-78
2023/01/29 03:48:19;;;;;;;4.20;2.50;;;;;;;;;;6219845;28;20300;-79
2023/01/29 03:51:30;;;;;;;4.77;2.30;;;;;;;;;;6219528;28;20521;-79
2023/01/29 03:54:41;;;;;;;2.40;2.20;;;;;;;;;;6237207;28;20302;-79
2023/01/29 03:57:53;;;;;;;6.67;2.53;;;;;;;;;;6220385;28;20296;-79
2023/01/29 04:01:01;;;;;;;7.60;2.50;;;;;;;;;;6211340;28;20452;-78
2023/01/29 04:04:12;;;;;;;2.93;2.27;;;;;;;;;;6184569;28;20300;-78
2023/01/29 04:07:23;;;;;;;3.07;2.40;;;;;;;;;;6186799;28;20290;-79
2023/01/29 04:10:40;;;;;;;5.33;2.50;;;;;;;;;;6186767;28;20297;-79
2023/01/29 04:13:46;;;;;;;4.83;2.70;;;;;;;;;;6205549;28;20292;-78
2023/01/29 04:16:56;;;;;;;2.57;2.37;;;;;;;;;;6211413;28;20274;-78
2023/01/29 04:20:20;;;;;;;4.57;2.50;;;;;;;;;;6201253;28;20295;-79
2023/01/29 04:23:27;;;;;;;5.13;2.43;;;;;;;;;;6170236;28;20289;-79
2023/01/29 04:26:55;;;;;;;6.17;2.40;;;;;;;;;;6187076;28;20293;-78
2023/01/29 04:30:09;;;;;;;4.00;2.63;;;;;;;;;;6173317;28;20437;-79
2023/01/29 04:33:25;;;;;;;5.40;1.93;;;;;;;;;;6170348;28;20623;-78
2023/01/29 04:36:36;;;;;;;4.30;2.37;;;;;;;;;;6169677;28;20308;-79
2023/01/29 04:39:52;;;;;;;4.77;2.23;;;;;;;;;;6185548;28;20290;-78
2023/01/29 04:43:09;;;;;;;6.70;2.50;;;;;;;;;;6187435;28;20302;-78
2023/01/29 04:46:17;;;;;;;2.60;2.17;;;;;;;;;;6186930;28;20306;-79
2023/01/29 04:49:30;;;;;;;3.70;2.43;;;;;;;;;;6186909;28;20311;-78
2023/01/29 04:52:43;;;;;;;6.10;2.27;;;;;;;;;;6187460;28;20299;-79
2023/01/29 04:55:53;;;;;;;4.20;2.30;;;;;;;;;;6186229;28;20300;-79
2023/01/29 04:59:02;;;;;;;2.97;2.30;;;;;;;;;;6186434;28;20369;-79
2023/01/29 05:02:09;;;;;;;3.43;2.23;;;;;;;;;;6186384;28;20282;-78
2023/01/29 05:05:15;;;;;;;3.13;2.00;;;;;;;;;;6186411;28;20291;-78
2023/01/29 05:08:23;;;;;;;4.87;2.20;;;;;;;;;;6185547;28;20299;-78
2023/01/29 05:11:31;;;;;;;3.40;2.20;;;;;;;;;;6190033;28;20310;-78
2023/01/29 05:14:39;;;;;;;3.40;2.47;;;;;;;;;;6210107;28;20297;-78
2023/01/29 05:17:44;;;;;;;5.70;2.10;;;;;;;;;;6213104;28;20476;-78
2023/01/29 05:20:50;;;;;;;4.10;2.27;;;;;;;;;;6215569;28;20294;-78
2023/01/29 05:24:16;;;;;;;3.43;2.37;;;;;;;;;;6215399;28;20310;-78
2023/01/29 05:30:56;;;;;;;4.10;2.10;;;;;;;;;;6215721;28;20297;-78
2023/01/29 05:34:01;;;;;;;4.30;2.37;;;;;;;;;;6214876;28;20320;-79
2023/01/29 05:37:07;;;;;;;2.90;2.20;;;;;;;;;;6216039;28;20287;-79
2023/01/29 05:40:13;;;;;;;5.13;2.50;;;;;;;;;;6215221;28;20294;-79
2023/01/29 05:43:22;;;;;;;2.57;2.37;;;;;;;;;;6214529;28;20297;-79
2023/01/29 05:46:27;;;;;;;2.50;2.30;;;;;;;;;;6214926;28;20371;-79
2023/01/29 05:49:33;;;;;;;2.60;2.27;;;;;;;;;;6213743;28;20298;-79
2023/01/29 05:52:38;;;;;;;4.60;2.30;;;;;;;;;;6215372;28;20304;-78
2023/01/29 05:55:45;;;;;;;2.70;2.50;;;;;;;;;;6214931;28;20323;-78
2023/01/29 05:58:54;;;;;;;3.40;2.30;;;;;;;;;;6212982;28;20271;-78
2023/01/29 06:02:02;;;;;;;2.50;2.40;;;;;;;;;;6212457;28;20278;-78
2023/01/29 06:05:08;;;;;;;3.03;2.00;;;;;;;;;;6238554;28;22945;-78
2023/01/29 06:08:15;;;;;;;2.40;2.20;;;;;;;;;;6239218;28;20292;-78
2023/01/29 06:11:21;;;;;;;4.33;2.63;;;;;;;;;;6233987;28;20289;-79
2023/01/29 06:14:27;;;;;;;4.40;2.30;;;;;;;;;;6211848;28;20313;-79
2023/01/29 06:17:35;;;;;;;8.10;2.50;;;;;;;;;;6222192;28;20464;-79
2023/01/29 06:20:40;;;;;;;5.37;2.37;;;;;;;;;;6221576;28;20294;-79
2023/01/29 06:23:45;;;;;;;4.40;2.50;;;;;;;;;;6221207;28;20294;-80
2023/01/29 06:26:50;;;;;;;4.23;2.53;;;;;;;;;;6218717;28;20293;-79
2023/01/29 06:29:59;;;;;;;6.30;2.40;;;;;;;;;;6188778;28;20319;-79
2023/01/29 06:33:06;;;;;;;4.37;2.80;;;;;;;;;;6190103;28;20307;-79
2023/01/29 06:36:12;;;;;;;4.97;2.90;;;;;;;;;;6189736;28;20611;-79
2023/01/29 06:39:17;;;;;;;2.40;2.30;;;;;;;;;;6188347;28;20303;-79
2023/01/29 06:42:26;;;;;;;5.77;2.40;;;;;;;;;;6189025;28;20381;-79
2023/01/29 06:45:33;;;;;;;5.03;2.83;;;;;;;;;;6189668;28;20301;-79
2023/01/29 06:48:39;;;;;;;6.37;2.53;;;;;;;;;;6190178;28;20303;-79
2023/01/29 06:51:44;;;;;;;5.90;2.70;;;;;;;;;;6195662;28;20463;-78
2023/01/29 06:54:49;;;;;;;3.07;2.53;;;;;;;;;;6203004;28;20454;-78
2023/01/29 06:57:54;;;;;;;2.57;2.40;;;;;;;;;;6205447;28;20317;-80
2023/01/29 07:01:05;;;;;;;2.60;2.50;;;;;;;;;;6205686;28;20253;-78
2023/01/29 07:04:14;;;;;;;2.77;2.50;;;;;;;;;;6202170;28;20283;-79
2023/01/29 07:07:19;;;;;;;2.73;2.63;;;;;;;;;;6194650;28;20294;-78
2023/01/29 07:10:25;;;;;;;3.00;2.80;;;;;;;;;;6189467;28;20304;-78
2023/01/29 07:13:31;;;;;;;7.10;3.10;;;;;;;;;;6233353;28;20300;-79
2023/01/29 07:16:38;;;;;;;6.83;2.70;;;;;;;;;;6237590;28;20314;-78
2023/01/29 07:19:43;;;;;;;3.30;2.67;;;;;;;;;;6236770;28;20297;-79
2023/01/29 07:22:48;;;;;;;4.20;2.97;;;;;;;;;;6232285;28;20298;-79
2023/01/29 07:25:53;;;;;;;6.07;2.77;;;;;;;;;;6237339;28;20309;-79
2023/01/29 07:28:59;;;;;;;3.20;2.90;;;;;;;;;;6236711;28;20286;-78
2023/01/29 07:32:06;;;;;;;4.57;2.97;;;;;;;;;;6237395;28;20283;-79
2023/01/29 07:35:12;;;;;;;7.80;3.40;;;;;;;;;;6236906;28;20300;-79
2023/01/29 07:38:18;;;;;;;4.30;3.50;;;;;;;;;;6219390;28;20464;-79
2023/01/29 07:41:23;;;;;;;6.53;2.83;;;;;;;;;;6218197;28;20289;-79
2023/01/29 07:44:28;;;;;;;3.53;3.17;;;;;;;;;;6218887;28;20301;-80
2023/01/29 07:47:34;;;;;;;3.70;3.40;;;;;;;;;;6236693;28;20293;-80
2023/01/29 07:50:40;;;;;;;3.27;3.07;;;;;;;;;;6236422;28;20297;-80
2023/01/29 07:53:46;;;;;;;3.73;3.10;;;;;;;;;;6235687;28;20292;-80
2023/01/29 07:56:51;;;;;;;4.90;2.90;;;;;;;;;;6237182;28;20309;-80
2023/01/29 07:59:56;;;;;;;5.00;3.20;;;;;;;;;;6236523;28;20293;-80
2023/01/29 08:03:07;;;;;;;4.30;3.30;;;;;;;;;;6236487;28;20308;-80
2023/01/29 08:06:12;;;;;;;3.47;3.17;;;;;;;;;;6236359;28;20299;-79
2023/01/29 08:09:19;;;;;;;3.20;2.90;;;;;;;;;;6218789;28;20302;-80
2023/01/29 08:12:24;;;;;;;4.70;3.37;;;;;;;;;;6231139;28;20292;-79
2023/01/29 08:15:31;;;;;;;4.17;3.13;;;;;;;;;;6218843;28;20306;-80
2023/01/29 08:18:42;;;;;;;8.50;3.43;;;;;;;;;;6219133;28;20289;-80
2023/01/29 08:21:49;;;;;;;2.73;2.40;;;;;;;;;;6229298;28;20289;-79
2023/01/29 08:24:54;;;;;;;4.97;2.60;;;;;;;;;;6235757;28;20491;-79
2023/01/29 08:28:13;;;;;;;4.60;2.77;;;;;;;;;;6236081;28;20294;-81
2023/01/29 08:31:19;;;;;;;3.00;2.47;;;;;;;;;;6217881;28;20374;-80
2023/01/29 08:34:26;;;;;;;3.43;2.33;;;;;;;;;;6235725;28;20288;-79
2023/01/29 08:37:32;;;;;;;2.83;2.33;;;;;;;;;;6235797;28;20299;-79
2023/01/29 08:40:51;;;;;;;3.50;2.60;;;;;;;;;;6234224;28;20311;-79
2023/01/29 08:43:59;;;;;;;6.83;2.33;;;;;;;;;;6235337;28;20270;-80
2023/01/29 08:47:04;;;;;;;3.57;2.57;;;;;;;;;;6235410;28;20289;-80
2023/01/29 08:50:12;;;;;;;2.60;2.40;;;;;;;;;;6234481;28;20286;-80
2023/01/29 08:53:23;;;;;;;7.30;2.30;;;;;;;;;;6235889;28;20287;-81
2023/01/29 08:56:28;;;;;;;4.07;2.37;;;;;;;;;;6235539;28;20284;-81
2023/01/29 08:59:34;;;;;;;2.33;2.10;;;;;;;;;;6218566;28;20295;-81
2023/01/29 09:02:39;;;;;;;7.20;2.50;;;;;;;;;;6218373;28;20331;-78
2023/01/29 09:05:46;;;;;;;11.97;2.43;;;;;;;;;;6235142;28;20296;-77
2023/01/29 09:08:51;;;;;;;4.60;2.30;;;;;;;;;;6234447;28;20354;-78
2023/01/29 09:11:57;;;;;;;7.00;2.60;;;;;;;;;;6230045;28;20295;-79
2023/01/29 09:15:02;;;;;;;4.20;2.10;;;;;;;;;;6235693;28;20299;-79
2023/01/29 09:18:08;;;;;;;7.83;2.40;;;;;;;;;;6236639;28;20299;-79
2023/01/29 09:21:15;;;;;;;3.77;2.33;;;;;;;;;;6235034;28;20588;-79
2023/01/29 09:24:21;;;;;;;3.13;1.90;;;;;;;;;;6217252;28;20466;-78
2023/01/29 09:27:26;;;;;;;7.80;2.20;;;;;;;;;;6235160;28;20298;-78
2023/01/29 09:30:33;;;;;;;6.00;2.50;;;;;;;;;;6234716;28;20310;-80
2023/01/29 09:33:38;;;;;;;3.73;2.10;;;;;;;;;;6235512;28;20292;-81
2023/01/29 09:36:45;;;;;;;3.27;2.10;;;;;;;;;;6217229;28;20308;-80
2023/01/29 09:39:51;;;;;;;3.57;1.93;;;;;;;;;;6217674;28;20296;-80
2023/01/29 09:43:00;;;;;;;2.40;1.97;;;;;;;;;;6235323;28;20619;-80
2023/01/29 09:46:07;;;;;;;2.63;2.37;;;;;;;;;;6233567;28;20300;-80
2023/01/29 09:49:17;;;;;;;5.13;2.33;;;;;;;;;;6216920;28;20296;-78
2023/01/29 09:52:26;;;;;;;2.37;2.00;;;;;;;;;;6234041;28;20313;-77
2023/01/29 09:55:34;;;;;;;3.20;2.10;;;;;;;;;;6234606;28;20304;-77
2023/01/29 09:58:41;;;;;;;7.73;2.47;;;;;;;;;;6234582;28;20288;-77
2023/01/29 10:01:53;;;;;;;4.33;2.10;;;;;;;;;;6234876;28;20292;-79
2023/01/29 10:05:10;;;;;;;2.17;2.07;;;;;;;;;;6237597;28;20498;-78
2023/01/29 10:08:42;;;;;;;4.93;2.00;;;;;;;;;;6239770;28;20302;-79
2023/01/29 10:11:56;;;;;;;5.93;2.20;;;;;;;;;;6216715;28;20292;-78
2023/01/29 10:15:09;;;;;;;3.37;2.53;;;;;;;;;;6238434;28;20616;-79
2023/01/29 10:18:42;;;;;;;4.03;2.20;;;;;;;;;;6239416;28;20299;-79
2023/01/29 10:22:19;;;;;;;3.93;2.30;;;;;;;;;;6227430;28;20289;-81
2023/01/29 10:25:26;;;;;;;3.63;2.30;;;;;;;;;;6238470;28;20307;-78
2023/01/29 10:28:35;;;;;;;3.00;2.20;;;;;;;;;;6238751;28;20587;-78
2023/01/29 10:31:41;;;;;;;3.20;2.33;;;;;;;;;;6221144;28;20296;-79
2023/01/29 10:34:49;;;;;;;7.40;2.17;;;;;;;;;;6238549;28;20295;-80
2023/01/29 10:37:55;;;;;;;4.00;2.40;;;;;;;;;;6238462;28;20364;-80
2023/01/29 10:41:42;;;;;;;2.93;2.00;;;;;;;;;;6224087;28;20295;-78
2023/01/29 10:45:08;;;;;;;1.70;1.60;;;;;;;;;;6241385;28;20300;-79
2023/01/29 10:48:35;;;;;;;6.87;2.40;;;;;;;;;;6241326;28;20308;-79
2023/01/29 10:51:57;;;;;;;8.27;2.30;;;;;;;;;;6237863;28;20486;-80
2023/01/29 10:55:15;;;;;;;3.40;2.07;;;;;;;;;;6238173;28;20300;-80
2023/01/29 10:58:30;;;;;;;1.93;1.60;;;;;;;;;;6238990;28;20291;-80
2023/01/29 11:01:35;;;;;;;5.47;2.30;;;;;;;;;;6237920;28;20319;-79
2023/01/29 11:04:40;;;;;;;6.97;1.93;;;;;;;;;;6237786;28;20289;-79
2023/01/29 11:07:46;;;;;;;7.30;2.00;;;;;;;;;;6239000;28;20296;-79
2023/01/29 11:10:56;;;;;;;2.70;2.07;;;;;;;;;;6233028;28;20361;-78
2023/01/29 11:14:14;;;;;;;4.83;1.87;;;;;;;;;;6214060;28;20309;-78
2023/01/29 11:17:20;;;;;;;4.20;2.37;;;;;;;;;;6213874;28;20305;-78
2023/01/29 11:20:28;;;;;;;7.00;2.30;;;;;;;;;;6213225;28;20304;-78
2023/01/29 11:23:34;;;;;;;4.70;2.00;;;;;;;;;;6213716;28;20300;-77
2023/01/29 11:26:41;;;;;;;3.40;2.20;;;;;;;;;;6213347;28;20303;-78
2023/01/29 11:29:51;;;;;;;6.30;2.30;;;;;;;;;;6195456;28;20301;-78
2023/01/29 11:33:08;;;;;;;4.50;2.43;;;;;;;;;;6214043;28;20600;-79
2023/01/29 11:36:33;;;;;;;2.40;2.17;;;;;;;;;;6212770;28;20464;-80
2023/01/29 11:39:45;;;;;;;5.40;2.27;;;;;;;;;;6212836;28;20490;-78
2023/01/29 11:42:52;;;;;;;7.87;2.30;;;;;;;;;;6213513;28;20297;-78
2023/01/29 11:46:02;;;;;;;4.10;2.30;;;;;;;;;;6195651;28;20303;-78
2023/01/29 11:49:28;;;;;;;2.30;1.77;;;;;;;;;;6212426;28;20300;-77
2023/01/29 11:52:37;;;;;;;1.80;1.70;;;;;;;;;;6212132;28;20304;-79
2023/01/29 11:55:46;;;;;;;6.27;2.00;;;;;;;;;;6179976;28;20308;-78
2023/01/29 11:58:56;;;;;;;4.20;2.27;;;;;;;;;;6211222;28;20277;-77
2023/01/29 12:02:26;;;;;;;6.67;2.27;;;;;;;;;;6212642;28;20480;-78
2023/01/29 12:05:32;;;;;;;5.73;1.90;;;;;;;;;;6211667;28;20305;-77
2023/01/29 12:08:39;;;;;;;2.00;1.50;;;;;;;;;;6212665;28;20296;-77
2023/01/29 12:11:44;;;;;;;4.33;1.63;;;;;;;;;;6198797;28;20299;-77
2023/01/29 12:15:14;;;;;;;2.47;1.70;;;;;;;;;;6236707;28;20569;-78
2023/01/29 12:18:26;;;;;;;6.47;2.03;;;;;;;;;;6237188;28;20311;-78
2023/01/29 12:21:35;;;;;;;2.80;1.53;;;;;;;;;;6236489;28;20300;-79
2023/01/29 12:24:45;;;;;;;5.17;1.93;;;;;;;;;;6236674;28;20291;-79
2023/01/29 12:27:56;;;;;;;4.83;1.73;;;;;;;;;;6218527;28;20604;-78
2023/01/29 12:31:11;;;;;;;5.07;1.87;;;;;;;;;;6235969;28;20350;-78
2023/01/29 12:34:23;;;;;;;7.80;1.83;;;;;;;;;;6236447;28;20300;-79
2023/01/29 12:37:39;;;;;;;6.70;1.60;;;;;;;;;;6219588;28;20292;-78
2023/01/29 12:40:47;;;;;;;4.17;1.50;;;;;;;;;;6218700;28;20470;-78
2023/01/29 12:43:55;;;;;;;4.43;1.53;;;;;;;;;;6235451;28;20585;-79
2023/01/29 12:47:02;;;;;;;2.93;1.87;;;;;;;;;;6218570;28;20299;-78
2023/01/29 12:50:18;;;;;;;1.40;1.30;;;;;;;;;;6236787;28;20460;-79
2023/01/29 12:53:26;;;;;;;4.23;1.70;;;;;;;;;;6246951;28;20292;-78
2023/01/29 12:56:35;;;;;;;4.77;1.70;;;;;;;;;;6247409;28;20289;-79
2023/01/29 12:59:44;;;;;;;4.40;1.50;;;;;;;;;;6245159;28;20285;-78
2023/01/29 13:02:55;;;;;;;4.93;1.73;;;;;;;;;;6218899;28;20326;-78
2023/01/29 13:06:07;;;;;;;8.10;1.67;;;;;;;;;;6236109;28;20613;-79
2023/01/29 13:09:15;;;;;;;2.40;1.60;;;;;;;;;;6235628;28;20308;-76
2023/01/29 13:12:22;;;;;;;7.00;1.90;;;;;;;;;;6231335;28;20291;-78
2023/01/29 13:15:31;;;;;;;5.07;1.57;;;;;;;;;;6235695;28;20585;-78
2023/01/29 13:18:43;;;;;;;7.23;1.70;;;;;;;;;;6236424;28;20313;-78
2023/01/29 13:21:50;;;;;;;5.33;2.00;;;;;;;;;;6235076;28;20301;-79
2023/01/29 13:24:57;;;;;;;5.70;1.90;;;;;;;;;;6218271;28;20315;-79
2023/01/29 13:28:18;;;;;;;6.00;1.60;;;;;;;;;;6235711;28;20308;-77
2023/01/29 13:31:30;;;;;;;5.87;1.60;;;;;;;;;;6236751;28;20289;-77
2023/01/29 13:34:37;;;;;;;4.67;1.87;;;;;;;;;;6238867;28;20291;-78
2023/01/29 13:37:48;;;;;;;8.50;2.00;;;;;;;;;;6238195;28;20293;-78
2023/01/29 13:41:03;;;;;;;6.20;1.83;;;;;;;;;;6239808;28;20304;-78
2023/01/29 13:44:21;;;;;;;3.13;1.50;;;;;;;;;;6232717;28;20290;-78
2023/01/29 13:47:28;;;;;;;4.47;1.60;;;;;;;;;;6250399;28;20291;-78
2023/01/29 13:50:36;;;;;;;4.93;1.77;;;;;;;;;;6250484;28;20288;-77
2023/01/29 13:53:47;;;;;;;5.80;1.77;;;;;;;;;;6250108;28;20460;-78
2023/01/29 13:57:00;;;;;;;3.90;1.63;;;;;;;;;;6225353;28;20443;-78
2023/01/29 14:00:10;;;;;;;6.47;1.40;;;;;;;;;;6223074;28;20300;-78
2023/01/29 14:03:52;;;;;;;5.50;2.00;;;;;;;;;;6238735;28;20295;-78
2023/01/29 14:07:48;;;;;;;4.03;1.60;;;;;;;;;;6222329;28;20319;-78
2023/01/29 14:11:32;;;;;;;6.10;1.57;;;;;;;;;;6234379;28;20299;-78
2023/01/29 14:15:06;;;;;;;3.67;1.50;;;;;;;;;;6190516;28;20323;-78
2023/01/29 14:18:19;;;;;;;4.63;1.40;;;;;;;;;;6191298;28;20486;-78
2023/01/29 14:21:27;;;;;;;8.30;1.90;;;;;;;;;;6174254;28;20299;-78
2023/01/29 14:24:32;;;;;;;7.03;1.73;;;;;;;;;;6190559;28;20297;-78
2023/01/29 14:27:48;;;;;;;4.77;1.73;;;;;;;;;;6173564;28;20491;-79
2023/01/29 14:30:54;;;;;;;2.10;1.27;;;;;;;;;;6172787;28;20307;-78
2023/01/29 14:34:02;;;;;;;4.90;1.50;;;;;;;;;;6173546;28;20298;-79
2023/01/29 14:37:21;;;;;;;4.30;1.73;;;;;;;;;;6190688;28;20290;-79
2023/01/29 14:40:28;;;;;;;4.53;1.77;;;;;;;;;;6190107;28;20316;-78
2023/01/29 14:43:35;;;;;;;5.40;1.60;;;;;;;;;;6173404;28;20608;-79
2023/01/29 14:46:45;;;;;;;1.70;1.53;;;;;;;;;;6186639;28;20296;-79
2023/01/29 14:49:52;;;;;;;3.80;2.10;;;;;;;;;;6187382;28;20302;-79
2023/01/29 14:53:03;;;;;;;3.30;2.03;;;;;;;;;;6190265;28;20300;-79
2023/01/29 14:56:14;;;;;;;4.97;1.53;;;;;;;;;;6189511;28;20436;-79
2023/01/29 14:59:23;;;;;;;4.20;1.67;;;;;;;;;;6189808;28;20299;-79
2023/01/29 15:02:38;;;;;;;4.70;1.70;;;;;;;;;;6189544;28;20291;-79
2023/01/29 15:05:43;;;;;;;5.20;1.57;;;;;;;;;;6189915;28;20567;-78
2023/01/29 15:08:54;;;;;;;3.93;1.30;;;;;;;;;;6189539;28;20302;-81
2023/01/29 15:12:06;;;;;;;4.93;1.73;;;;;;;;;;6209926;28;20306;-80
2023/01/29 15:15:17;;;;;;;4.07;1.80;;;;;;;;;;6240343;28;20306;-79
2023/01/29 15:18:29;;;;;;;6.93;1.60;;;;;;;;;;6238606;28;20297;-79
2023/01/29 15:21:34;;;;;;;5.40;1.70;;;;;;;;;;6237581;28;20294;-79
2023/01/29 15:24:43;;;;;;;3.77;1.70;;;;;;;;;;6237513;28;20301;-77
2023/01/29 15:27:49;;;;;;;4.57;1.90;;;;;;;;;;6221011;28;20293;-79
2023/01/29 15:30:59;;;;;;;2.33;1.80;;;;;;;;;;6220422;28;20295;-80
2023/01/29 15:34:10;;;;;;;4.50;1.53;;;;;;;;;;6238323;28;20290;-78
2023/01/29 15:37:27;;;;;;;5.37;1.50;;;;;;;;;;6239644;28;20299;-80
2023/01/29 15:40:32;;;;;;;6.03;1.33;;;;;;;;;;6239125;28;20307;-79
2023/01/29 15:43:42;;;;;;;6.90;1.87;;;;;;;;;;6238879;28;20290;-81
2023/01/29 15:46:53;;;;;;;3.57;1.57;;;;;;;;;;6236890;28;20292;-79
2023/01/29 15:49:58;;;;;;;1.60;1.50;;;;;;;;;;6236511;28;20456;-79
2023/01/29 15:53:06;;;;;;;7.10;1.87;;;;;;;;;;6238147;28;20445;-79
2023/01/29 15:56:17;;;;;;;4.37;1.63;;;;;;;;;;6236970;28;20311;-79
2023/01/29 15:59:25;;;;;;;1.60;1.50;;;;;;;;;;6237374;28;20299;-80
2023/01/29 16:02:37;;;;;;;4.07;1.60;;;;;;;;;;6236609;28;20291;-80
2023/01/29 16:05:43;;;;;;;3.43;1.70;;;;;;;;;;6237083;28;20297;-79
2023/01/29 16:08:51;;;;;;;5.70;1.80;;;;;;;;;;6237045;28;20320;-78
2023/01/29 16:11:58;;;;;;;4.73;1.70;;;;;;;;;;6230526;28;20586;-80
2023/01/29 16:15:05;;;;;;;5.80;1.70;;;;;;;;;;6236876;28;20291;-80
2023/01/29 16:18:23;;;;;;;8.40;1.90;;;;;;;;;;6237111;28;20462;-79
2023/01/29 16:21:29;;;;;;;3.63;1.60;;;;;;;;;;6236261;28;20609;-79
2023/01/29 16:24:37;;;;;;;8.60;2.17;;;;;;;;;;6236750;28;20298;-79
2023/01/29 16:27:44;;;;;;;4.10;1.80;;;;;;;;;;6219580;28;20294;-79
2023/01/29 16:30:56;;;;;;;5.10;1.83;;;;;;;;;;6218479;28;20310;-80
2023/01/29 16:34:10;;;;;;;7.97;1.87;;;;;;;;;;6236141;28;20299;-79
2023/01/29 16:37:22;;;;;;;5.57;2.23;;;;;;;;;;6236447;28;20290;-79
2023/01/29 16:40:32;;;;;;;6.30;2.30;;;;;;;;;;6235846;28;20302;-79
2023/01/29 16:43:51;;;;;;;2.57;1.47;;;;;;;;;;6236174;28;20481;-79
2023/01/29 16:46:56;;;;;;;4.80;1.90;;;;;;;;;;6235256;28;20293;-79
2023/01/29 16:50:22;;;;;;;4.47;1.83;;;;;;;;;;6235630;28;20311;-80
2023/01/29 16:53:27;;;;;;;3.63;2.07;;;;;;;;;;6237841;28;20287;-79
2023/01/29 16:56:33;;;;;;;5.07;1.70;;;;;;;;;;6235655;28;20294;-79
2023/01/29 16:59:40;;;;;;;1.83;1.40;;;;;;;;;;6218327;28;20302;-79
2023/01/29 17:03:05;;;;;;;5.80;1.47;;;;;;;;;;6235931;28;20355;-79
2023/01/29 17:06:13;;;;;;;10.40;1.90;;;;;;;;;;6235417;28;20425;-80
2023/01/29 17:09:25;;;;;;;3.17;1.60;;;;;;;;;;6235249;28;20292;-80
2023/01/29 17:12:32;;;;;;;3.73;1.40;;;;;;;;;;6230268;28;20497;-80
2023/01/29 17:15:45;;;;;;;9.77;1.80;;;;;;;;;;6235404;28;20387;-80
2023/01/29 17:18:50;;;;;;;6.83;1.90;;;;;;;;;;6218091;28;20297;-79
2023/01/29 17:21:58;;;;;;;3.07;1.40;;;;;;;;;;6218374;28;20294;-80
2023/01/29 17:25:03;;;;;;;8.47;1.70;;;;;;;;;;6217548;28;20375;-81
2023/01/29 17:28:10;;;;;;;8.37;1.30;;;;;;;;;;6235795;28;20287;-80
2023/01/29 17:31:15;;;;;;;3.73;1.67;;;;;;;;;;6217954;28;20303;-78
2023/01/29 17:34:20;;;;;;;2.43;1.37;;;;;;;;;;6235318;28;20295;-79
2023/01/29 17:37:27;;;;;;;4.67;1.70;;;;;;;;;;6202964;28;20588;-79
2023/01/29 17:40:37;;;;;;;6.70;1.23;;;;;;;;;;6235486;28;20298;-80
2023/01/29 17:43:43;;;;;;;8.77;2.00;;;;;;;;;;6217552;28;20297;-77
2023/01/29 17:46:48;;;;;;;2.90;1.80;;;;;;;;;;6236425;28;20300;-78
2023/01/29 17:49:53;;;;;;;3.83;1.80;;;;;;;;;;6216626;28;20460;-78
2023/01/29 17:53:01;;;;;;;7.30;1.70;;;;;;;;;;6235503;28;20263;-80
2023/01/29 17:56:07;;;;;;;6.83;2.10;;;;;;;;;;6234576;28;20587;-78
2023/01/29 17:59:14;;;;;;;2.87;1.40;;;;;;;;;;6234375;28;20587;-78
2023/01/29 18:02:20;;;;;;;1.87;1.70;;;;;;;;;;6234883;28;20294;-78
2023/01/29 18:05:34;;;;;;;5.73;2.23;;;;;;;;;;6186521;28;20303;-78
2023/01/29 18:08:40;;;;;;;2.30;1.60;;;;;;;;;;6187307;28;20292;-78
2023/01/29 18:11:46;;;;;;;3.33;1.77;;;;;;;;;;6177971;28;20305;-79
2023/01/29 18:14:51;;;;;;;6.77;1.57;;;;;;;;;;6185884;28;20308;-77
2023/01/29 18:17:57;;;;;;;2.80;1.33;;;;;;;;;;6186595;28;20484;-79
2023/01/29 18:21:02;;;;;;;4.23;1.60;;;;;;;;;;6186384;28;20329;-77
2023/01/29 18:24:09;;;;;;;3.50;1.53;;;;;;;;;;6201983;28;20329;-76
2023/01/29 18:27:14;;;;;;;5.23;1.27;;;;;;;;;;6148409;28;20435;-76
2023/01/29 18:30:19;;;;;;;7.50;1.47;;;;;;;;;;6142692;29;20302;-79
2023/01/29 18:33:25;;;;;;;3.20;1.50;;;;;;;;;;6143273;29;20301;-79
2023/01/29 18:36:30;;;;;;;2.60;1.40;;;;;;;;;;6143820;28;20301;-77
2023/01/29 18:39:37;;;;;;;3.60;1.60;;;;;;;;;;6146834;29;20295;-79
2023/01/29 18:42:43;;;;;;;6.63;1.40;;;;;;;;;;6156480;29;20302;-79
2023/01/29 18:45:49;;;;;;;7.17;1.50;;;;;;;;;;6154012;28;20306;-79
2023/01/29 18:48:54;;;;;;;2.93;1.70;;;;;;;;;;6144301;29;20297;-78
2023/01/29 18:51:59;;;;;;;1.30;1.20;;;;;;;;;;6143792;29;20297;-78
2023/01/29 18:55:08;;;;;;;3.03;1.63;;;;;;;;;;6157720;28;20305;-83
2023/01/29 18:58:13;;;;;;;5.43;1.50;;;;;;;;;;6143557;29;20305;-79
2023/01/29 19:01:40;;;;;;;3.57;1.30;;;;;;;;;;6142720;28;20327;-79
2023/01/29 19:04:46;;;;;;;2.20;1.20;;;;;;;;;;6160016;28;20301;-81
2023/01/29 19:07:52;;;;;;;4.37;1.40;;;;;;;;;;6165528;28;20282;-80
2023/01/29 19:11:02;;;;;;;2.93;1.23;;;;;;;;;;6170107;28;20301;-79
2023/01/29 19:14:08;;;;;;;2.67;1.70;;;;;;;;;;6165113;28;20305;-79
2023/01/29 19:17:13;;;;;;;2.80;1.63;;;;;;;;;;6165762;28;20637;-79
2023/01/29 19:20:18;;;;;;;4.57;1.33;;;;;;;;;;6165315;28;20304;-81
2023/01/29 19:23:23;;;;;;;2.93;1.10;;;;;;;;;;6165483;28;20302;-80
2023/01/29 19:26:32;;;;;;;1.60;1.50;;;;;;;;;;6165378;28;20297;-80